sensor_id;sensor_type;location;lat;lon;timestamp;temperature;humidity
38684;DHT22;24910;53.248;-6.134;2024-01-15T00:02:07;5.60;83.40
38684;DHT22;24910;53.248;-6.134;2024-01-15T00:04:37;5.60;83.30
38684;DHT22;24910;53.248;-6.134;2024-01-15T00:07:07;5.50;83.40
38684;DHT22;24910;53.248;-6.134;2024-01-15T00:09:37;5.50;83.40
38684;DHT22;24910;53.248;-6.134;2024-01-15T00:12:08;5.50;83.40
38684;DHT22;24910;53.248;-6.134;2024-01-15T00:14:37;5.50;83.40
38684;DHT22;24910;53.248;-6.134;2024-01-15T00:17:06;5.50;83.40
38684;DHT22;24910;53.248;-6.134;2024-01-15T00:19:35;5.50;83.30
38684;DHT22;24910;53.248;-6.134;2024-01-15T00:22:05;5.50;83.30
38684;DHT22;24910;53.248;-6.134;2024-01-15T00:24:34;5.40;83.30
38684;DHT22;24910;53.248;-6.134;2024-01-15T00:27:04;5.40;83.40
38684;DHT22;24910;53.248;-6.134;2024-01-15T00:29:34;5.40;83.40
38684;DHT22;24910;53.248;-6.134;2024-01-15T00:32:04;5.40;83.50
38684;DHT22;24910;53.248;-6.134;2024-01-15T00:34:34;5.30;83.60
38684;DHT22;24910;53.248;-6.134;2024-01-15T00:37:03;5.30;83.50
38684;DHT22;24910;53.248;-6.134;2024-01-15T00:39:34;5.30;83.50
38684;DHT22;24910;53.248;-6.134;2024-01-15T00:42:04;5.30;83.60
38684;DHT22;24910;53.248;-6.134;2024-01-15T00:44:34;5.30;83.50
38684;DHT22;24910;53.248;-6.134;2024-01-15T00:47:04;5.30;83.40
38684;DHT22;24910;53.248;-6.134;2024-01-15T00:49:33;5.30;83.30
38684;DHT22;24910;53.248;-6.134;2024-01-15T00:52:03;5.30;83.30
38684;DHT22;24910;53.248;-6.134;2024-01-15T00:54:33;5.30;83.30
38684;DHT22;24910;53.248;-6.134;2024-01-15T00:57:03;5.30;83.40
38684;DHT22;24910;53.248;-6.134;2024-01-15T00:59:33;5.20;83.50
38684;DHT22;24910;53.248;-6.134;2024-01-15T01:02:03;5.20;83.50
38684;DHT22;24910;53.248;-6.134;2024-01-15T01:04:32;5.20;83.40
38684;DHT22;24910;53.248;-6.134;2024-01-15T01:07:02;5.20;83.40
38684;DHT22;24910;53.248;-6.134;2024-01-15T01:09:31;5.20;83.50
38684;DHT22;24910;53.248;-6.134;2024-01-15T01:12:00;5.20;83.40
38684;DHT22;24910;53.248;-6.134;2024-01-15T01:14:30;5.20;83.40
38684;DHT22;24910;53.248;-6.134;2024-01-15T01:17:00;5.20;83.40
38684;DHT22;24910;53.248;-6.134;2024-01-15T01:19:30;5.20;83.40
38684;DHT22;24910;53.248;-6.134;2024-01-15T01:22:00;5.20;83.40
38684;DHT22;24910;53.248;-6.134;2024-01-15T01:24:29;5.20;83.30
38684;DHT22;24910;53.248;-6.134;2024-01-15T01:26:58;5.10;83.30
38684;DHT22;24910;53.248;-6.134;2024-01-15T01:29:28;5.10;83.30
38684;DHT22;24910;53.248;-6.134;2024-01-15T01:31:57;5.10;83.30
38684;DHT22;24910;53.248;-6.134;2024-01-15T01:34:27;5.10;83.30
38684;DHT22;24910;53.248;-6.134;2024-01-15T01:37:01;5.10;83.30
38684;DHT22;24910;53.248;-6.134;2024-01-15T01:39:30;5.00;83.40
38684;DHT22;24910;53.248;-6.134;2024-01-15T01:42:00;5.00;83.40
38684;DHT22;24910;53.248;-6.134;2024-01-15T01:44:29;5.10;83.30
38684;DHT22;24910;53.248;-6.134;2024-01-15T01:46:59;5.10;83.30
38684;DHT22;24910;53.248;-6.134;2024-01-15T01:49:30;5.00;83.30
38684;DHT22;24910;53.248;-6.134;2024-01-15T01:52:00;5.00;83.30
38684;DHT22;24910;53.248;-6.134;2024-01-15T01:54:31;5.00;83.40
38684;DHT22;24910;53.248;-6.134;2024-01-15T01:57:02;5.00;84.30
38684;DHT22;24910;53.248;-6.134;2024-01-15T01:59:33;5.00;83.50
38684;DHT22;24910;53.248;-6.134;2024-01-15T02:02:03;5.00;83.50
38684;DHT22;24910;53.248;-6.134;2024-01-15T02:04:36;5.00;83.40
38684;DHT22;24910;53.248;-6.134;2024-01-15T02:07:06;5.00;83.30
38684;DHT22;24910;53.248;-6.134;2024-01-15T02:09:35;5.00;83.40
38684;DHT22;24910;53.248;-6.134;2024-01-15T02:12:05;4.90;83.40
38684;DHT22;24910;53.248;-6.134;2024-01-15T02:14:35;4.90;83.40
38684;DHT22;24910;53.248;-6.134;2024-01-15T02:17:04;4.90;83.50
38684;DHT22;24910;53.248;-6.134;2024-01-15T02:19:35;4.90;83.50
38684;DHT22;24910;53.248;-6.134;2024-01-15T02:22:05;4.90;83.50
38684;DHT22;24910;53.248;-6.134;2024-01-15T02:24:36;4.90;83.50
38684;DHT22;24910;53.248;-6.134;2024-01-15T02:27:05;4.90;83.50
38684;DHT22;24910;53.248;-6.134;2024-01-15T02:29:35;4.90;83.40
38684;DHT22;24910;53.248;-6.134;2024-01-15T02:32:05;4.90;83.50
38684;DHT22;24910;53.248;-6.134;2024-01-15T02:34:34;4.90;83.60
38684;DHT22;24910;53.248;-6.134;2024-01-15T02:37:04;4.90;83.60
38684;DHT22;24910;53.248;-6.134;2024-01-15T02:39:33;4.90;83.60
38684;DHT22;24910;53.248;-6.134;2024-01-15T02:42:04;4.90;83.60
38684;DHT22;24910;53.248;-6.134;2024-01-15T02:44:34;4.90;83.60
38684;DHT22;24910;53.248;-6.134;2024-01-15T02:47:04;4.80;83.50
38684;DHT22;24910;53.248;-6.134;2024-01-15T02:49:33;4.90;83.60
38684;DHT22;24910;53.248;-6.134;2024-01-15T02:52:03;4.80;83.70
38684;DHT22;24910;53.248;-6.134;2024-01-15T02:54:32;4.80;83.50
38684;DHT22;24910;53.248;-6.134;2024-01-15T02:57:03;4.80;83.50
38684;DHT22;24910;53.248;-6.134;2024-01-15T02:59:33;4.80;83.50
38684;DHT22;24910;53.248;-6.134;2024-01-15T03:02:02;4.70;83.60
38684;DHT22;24910;53.248;-6.134;2024-01-15T03:04:31;4.70;83.60
38684;DHT22;24910;53.248;-6.134;2024-01-15T03:07:01;4.70;83.60
38684;DHT22;24910;53.248;-6.134;2024-01-15T03:09:30;4.70;83.60
38684;DHT22;24910;53.248;-6.134;2024-01-15T03:11:59;4.70;83.60
38684;DHT22;24910;53.248;-6.134;2024-01-15T03:14:30;4.70;83.70
38684;DHT22;24910;53.248;-6.134;2024-01-15T03:16:59;4.70;83.80
38684;DHT22;24910;53.248;-6.134;2024-01-15T03:19:29;4.70;83.90
38684;DHT22;24910;53.248;-6.134;2024-01-15T03:21:59;4.70;83.90
38684;DHT22;24910;53.248;-6.134;2024-01-15T03:24:31;4.60;83.70
38684;DHT22;24910;53.248;-6.134;2024-01-15T03:27:01;4.70;83.70
38684;DHT22;24910;53.248;-6.134;2024-01-15T03:29:32;4.70;83.70
38684;DHT22;24910;53.248;-6.134;2024-01-15T03:32:01;4.70;83.70
38684;DHT22;24910;53.248;-6.134;2024-01-15T03:34:30;4.60;83.60
38684;DHT22;24910;53.248;-6.134;2024-01-15T03:37:00;4.70;83.60
38684;DHT22;24910;53.248;-6.134;2024-01-15T03:39:29;4.60;83.60
38684;DHT22;24910;53.248;-6.134;2024-01-15T03:41:58;4.70;83.60
38684;DHT22;24910;53.248;-6.134;2024-01-15T03:44:28;4.70;83.60
38684;DHT22;24910;53.248;-6.134;2024-01-15T03:46:58;4.60;83.50
38684;DHT22;24910;53.248;-6.134;2024-01-15T03:49:28;4.60;83.50
38684;DHT22;24910;53.248;-6.134;2024-01-15T03:51:58;4.60;83.70
38684;DHT22;24910;53.248;-6.134;2024-01-15T03:54:27;4.60;83.70
38684;DHT22;24910;53.248;-6.134;2024-01-15T03:56:56;4.50;83.80
38684;DHT22;24910;53.248;-6.134;2024-01-15T03:59:26;4.50;84.00
38684;DHT22;24910;53.248;-6.134;2024-01-15T04:01:57;4.50;84.00
38684;DHT22;24910;53.248;-6.134;2024-01-15T04:04:26;4.50;83.80
38684;DHT22;24910;53.248;-6.134;2024-01-15T04:06:56;4.50;83.80
38684;DHT22;24910;53.248;-6.134;2024-01-15T04:09:25;4.50;84.00
38684;DHT22;24910;53.248;-6.134;2024-01-15T04:11:54;4.50;83.90
38684;DHT22;24910;53.248;-6.134;2024-01-15T04:14:24;4.50;84.00
38684;DHT22;24910;53.248;-6.134;2024-01-15T04:16:53;4.50;84.00
38684;DHT22;24910;53.248;-6.134;2024-01-15T04:19:24;4.50;84.00
38684;DHT22;24910;53.248;-6.134;2024-01-15T04:21:54;4.40;83.90
38684;DHT22;24910;53.248;-6.134;2024-01-15T04:24:23;4.40;83.90
38684;DHT22;24910;53.248;-6.134;2024-01-15T04:26:52;4.40;83.90
38684;DHT22;24910;53.248;-6.134;2024-01-15T04:29:21;4.40;83.80
38684;DHT22;24910;53.248;-6.134;2024-01-15T04:31:52;4.40;83.80
38684;DHT22;24910;53.248;-6.134;2024-01-15T04:34:21;4.40;83.80
38684;DHT22;24910;53.248;-6.134;2024-01-15T04:36:52;4.40;83.60
38684;DHT22;24910;53.248;-6.134;2024-01-15T04:39:22;4.40;83.50
38684;DHT22;24910;53.248;-6.134;2024-01-15T04:41:51;4.40;83.60
38684;DHT22;24910;53.248;-6.134;2024-01-15T04:44:21;4.40;83.70
38684;DHT22;24910;53.248;-6.134;2024-01-15T04:46:50;4.40;83.70
38684;DHT22;24910;53.248;-6.134;2024-01-15T04:49:19;4.40;83.80
38684;DHT22;24910;53.248;-6.134;2024-01-15T04:51:49;4.40;83.70
38684;DHT22;24910;53.248;-6.134;2024-01-15T04:54:20;4.40;83.80
38684;DHT22;24910;53.248;-6.134;2024-01-15T04:56:49;4.40;83.70
38684;DHT22;24910;53.248;-6.134;2024-01-15T04:59:18;4.30;83.70
38684;DHT22;24910;53.248;-6.134;2024-01-15T05:01:48;4.30;83.80
38684;DHT22;24910;53.248;-6.134;2024-01-15T05:04:17;4.20;84.00
38684;DHT22;24910;53.248;-6.134;2024-01-15T05:06:47;4.10;84.20
38684;DHT22;24910;53.248;-6.134;2024-01-15T05:09:16;4.10;84.30
38684;DHT22;24910;53.248;-6.134;2024-01-15T05:11:47;4.10;84.30
38684;DHT22;24910;53.248;-6.134;2024-01-15T05:14:16;4.10;84.40
38684;DHT22;24910;53.248;-6.134;2024-01-15T05:16:47;4.10;84.40
38684;DHT22;24910;53.248;-6.134;2024-01-15T05:19:16;4.00;84.30
38684;DHT22;24910;53.248;-6.134;2024-01-15T05:21:46;4.10;84.20
38684;DHT22;24910;53.248;-6.134;2024-01-15T05:24:15;4.00;84.10
38684;DHT22;24910;53.248;-6.134;2024-01-15T05:26:46;4.10;84.20
38684;DHT22;24910;53.248;-6.134;2024-01-15T05:29:16;4.10;84.10
38684;DHT22;24910;53.248;-6.134;2024-01-15T05:31:46;4.10;84.00
38684;DHT22;24910;53.248;-6.134;2024-01-15T05:34:15;4.20;84.00
38684;DHT22;24910;53.248;-6.134;2024-01-15T05:36:45;4.10;83.90
38684;DHT22;24910;53.248;-6.134;2024-01-15T05:39:16;4.10;83.90
38684;DHT22;24910;53.248;-6.134;2024-01-15T05:41:50;4.20;83.90
38684;DHT22;24910;53.248;-6.134;2024-01-15T05:44:19;4.10;83.70
38684;DHT22;24910;53.248;-6.134;2024-01-15T05:46:48;4.10;83.70
38684;DHT22;24910;53.248;-6.134;2024-01-15T05:49:18;4.10;84.00
38684;DHT22;24910;53.248;-6.134;2024-01-15T05:51:47;4.00;84.20
38684;DHT22;24910;53.248;-6.134;2024-01-15T05:54:18;4.00;84.30
38684;DHT22;24910;53.248;-6.134;2024-01-15T05:56:48;4.00;84.30
38684;DHT22;24910;53.248;-6.134;2024-01-15T05:59:19;4.00;84.20
38684;DHT22;24910;53.248;-6.134;2024-01-15T06:01:48;4.00;84.10
38684;DHT22;24910;53.248;-6.134;2024-01-15T06:04:17;4.00;84.10
38684;DHT22;24910;53.248;-6.134;2024-01-15T06:06:47;4.00;85.00
38684;DHT22;24910;53.248;-6.134;2024-01-15T06:09:17;4.00;84.10
38684;DHT22;24910;53.248;-6.134;2024-01-15T06:11:46;4.00;84.20
38684;DHT22;24910;53.248;-6.134;2024-01-15T06:14:15;4.00;84.10
38684;DHT22;24910;53.248;-6.134;2024-01-15T06:16:46;4.00;84.10
38684;DHT22;24910;53.248;-6.134;2024-01-15T06:19:15;4.00;84.20
38684;DHT22;24910;53.248;-6.134;2024-01-15T06:21:44;4.00;84.30
38684;DHT22;24910;53.248;-6.134;2024-01-15T06:24:14;4.00;84.40
38684;DHT22;24910;53.248;-6.134;2024-01-15T06:26:46;3.90;84.40
38684;DHT22;24910;53.248;-6.134;2024-01-15T06:29:15;3.90;84.40
38684;DHT22;24910;53.248;-6.134;2024-01-15T06:31:46;3.90;85.30
38684;DHT22;24910;53.248;-6.134;2024-01-15T06:34:16;3.90;84.50
38684;DHT22;24910;53.248;-6.134;2024-01-15T06:36:45;3.90;84.40
38684;DHT22;24910;53.248;-6.134;2024-01-15T06:39:14;3.90;84.30
38684;DHT22;24910;53.248;-6.134;2024-01-15T06:41:44;4.00;84.30
38684;DHT22;24910;53.248;-6.134;2024-01-15T06:44:13;4.00;84.20
38684;DHT22;24910;53.248;-6.134;2024-01-15T06:46:43;4.00;84.20
38684;DHT22;24910;53.248;-6.134;2024-01-15T06:49:14;3.90;84.30
38684;DHT22;24910;53.248;-6.134;2024-01-15T06:51:44;4.00;84.40
38684;DHT22;24910;53.248;-6.134;2024-01-15T06:54:16;3.90;84.30
38684;DHT22;24910;53.248;-6.134;2024-01-15T06:56:45;4.00;84.10
38684;DHT22;24910;53.248;-6.134;2024-01-15T06:59:15;4.00;84.00
38684;DHT22;24910;53.248;-6.134;2024-01-15T07:01:47;4.10;83.90
38684;DHT22;24910;53.248;-6.134;2024-01-15T07:04:17;4.00;83.80
38684;DHT22;24910;53.248;-6.134;2024-01-15T07:06:47;4.00;83.80
38684;DHT22;24910;53.248;-6.134;2024-01-15T07:09:16;4.00;83.70
38684;DHT22;24910;53.248;-6.134;2024-01-15T07:11:46;4.00;83.70
38684;DHT22;24910;53.248;-6.134;2024-01-15T07:14:15;4.00;83.70
38684;DHT22;24910;53.248;-6.134;2024-01-15T07:16:47;4.00;83.70
38684;DHT22;24910;53.248;-6.134;2024-01-15T07:19:18;4.00;83.70
38684;DHT22;24910;53.248;-6.134;2024-01-15T07:21:48;4.00;83.70
38684;DHT22;24910;53.248;-6.134;2024-01-15T07:24:20;4.00;83.70
38684;DHT22;24910;53.248;-6.134;2024-01-15T07:26:49;4.00;83.70
38684;DHT22;24910;53.248;-6.134;2024-01-15T07:29:18;3.90;83.80
38684;DHT22;24910;53.248;-6.134;2024-01-15T07:31:49;3.90;83.80
38684;DHT22;24910;53.248;-6.134;2024-01-15T07:34:20;3.90;83.80
38684;DHT22;24910;53.248;-6.134;2024-01-15T07:36:49;3.90;83.80
38684;DHT22;24910;53.248;-6.134;2024-01-15T07:39:19;3.90;83.90
38684;DHT22;24910;53.248;-6.134;2024-01-15T07:41:50;3.90;83.80
38684;DHT22;24910;53.248;-6.134;2024-01-15T07:44:20;3.90;83.80
38684;DHT22;24910;53.248;-6.134;2024-01-15T07:46:49;3.90;83.90
38684;DHT22;24910;53.248;-6.134;2024-01-15T07:49:20;3.90;83.90
38684;DHT22;24910;53.248;-6.134;2024-01-15T07:51:51;3.90;83.80
38684;DHT22;24910;53.248;-6.134;2024-01-15T07:54:21;3.90;83.60
38684;DHT22;24910;53.248;-6.134;2024-01-15T07:56:55;3.90;83.60
38684;DHT22;24910;53.248;-6.134;2024-01-15T07:59:25;4.00;83.70
38684;DHT22;24910;53.248;-6.134;2024-01-15T08:01:54;3.90;83.70
38684;DHT22;24910;53.248;-6.134;2024-01-15T08:04:25;4.00;83.80
38684;DHT22;24910;53.248;-6.134;2024-01-15T08:06:55;3.90;83.90
38684;DHT22;24910;53.248;-6.134;2024-01-15T08:09:25;3.90;84.10
38684;DHT22;24910;53.248;-6.134;2024-01-15T08:11:54;3.90;84.10
38684;DHT22;24910;53.248;-6.134;2024-01-15T08:14:23;3.90;84.10
38684;DHT22;24910;53.248;-6.134;2024-01-15T08:16:52;3.90;84.00
38684;DHT22;24910;53.248;-6.134;2024-01-15T08:19:22;3.90;84.00
38684;DHT22;24910;53.248;-6.134;2024-01-15T08:21:53;4.00;84.00
38684;DHT22;24910;53.248;-6.134;2024-01-15T08:24:22;3.90;83.90
38684;DHT22;24910;53.248;-6.134;2024-01-15T08:26:51;3.90;84.00
38684;DHT22;24910;53.248;-6.134;2024-01-15T08:29:21;3.90;83.90
38684;DHT22;24910;53.248;-6.134;2024-01-15T08:31:50;3.90;83.90
38684;DHT22;24910;53.248;-6.134;2024-01-15T08:34:20;3.90;83.80
38684;DHT22;24910;53.248;-6.134;2024-01-15T08:36:49;3.90;83.80
38684;DHT22;24910;53.248;-6.134;2024-01-15T08:39:20;3.90;83.80
38684;DHT22;24910;53.248;-6.134;2024-01-15T08:41:50;3.90;83.80
38684;DHT22;24910;53.248;-6.134;2024-01-15T08:44:19;3.90;83.80
38684;DHT22;24910;53.248;-6.134;2024-01-15T08:46:48;3.90;84.00
38684;DHT22;24910;53.248;-6.134;2024-01-15T08:49:17;3.90;84.10
38684;DHT22;24910;53.248;-6.134;2024-01-15T08:51:47;3.90;84.00
38684;DHT22;24910;53.248;-6.134;2024-01-15T08:54:17;4.00;83.90
38684;DHT22;24910;53.248;-6.134;2024-01-15T08:56:47;4.00;83.70
38684;DHT22;24910;53.248;-6.134;2024-01-15T08:59:17;4.00;83.70
38684;DHT22;24910;53.248;-6.134;2024-01-15T09:01:52;4.00;83.70
38684;DHT22;24910;53.248;-6.134;2024-01-15T09:04:22;4.00;83.80
38684;DHT22;24910;53.248;-6.134;2024-01-15T09:06:51;4.00;83.70
38684;DHT22;24910;53.248;-6.134;2024-01-15T09:09:20;4.00;83.70
38684;DHT22;24910;53.248;-6.134;2024-01-15T09:11:51;4.10;83.70
38684;DHT22;24910;53.248;-6.134;2024-01-15T09:14:21;4.10;83.70
38684;DHT22;24910;53.248;-6.134;2024-01-15T09:17:04;4.10;83.70
38684;DHT22;24910;53.248;-6.134;2024-01-15T09:19:34;4.10;83.70
38684;DHT22;24910;53.248;-6.134;2024-01-15T09:22:03;4.20;83.80
38684;DHT22;24910;53.248;-6.134;2024-01-15T09:24:33;4.20;83.80
38684;DHT22;24910;53.248;-6.134;2024-01-15T09:27:03;4.20;83.80
38684;DHT22;24910;53.248;-6.134;2024-01-15T09:29:33;4.20;83.80
38684;DHT22;24910;53.248;-6.134;2024-01-15T09:32:04;4.30;83.70
38684;DHT22;24910;53.248;-6.134;2024-01-15T09:34:35;4.30;84.50
38684;DHT22;24910;53.248;-6.134;2024-01-15T09:37:05;4.40;83.60
38684;DHT22;24910;53.248;-6.134;2024-01-15T09:39:34;4.40;83.60
38684;DHT22;24910;53.248;-6.134;2024-01-15T09:42:05;4.50;83.50
38684;DHT22;24910;53.248;-6.134;2024-01-15T09:44:35;4.50;83.40
38684;DHT22;24910;53.248;-6.134;2024-01-15T09:47:05;4.60;83.40
38684;DHT22;24910;53.248;-6.134;2024-01-15T09:49:35;4.60;83.50
38684;DHT22;24910;53.248;-6.134;2024-01-15T09:52:07;4.70;83.60
38684;DHT22;24910;53.248;-6.134;2024-01-15T09:54:39;4.70;83.60
38684;DHT22;24910;53.248;-6.134;2024-01-15T09:57:10;4.80;83.60
38684;DHT22;24910;53.248;-6.134;2024-01-15T09:59:40;4.80;83.50
38684;DHT22;24910;53.248;-6.134;2024-01-15T10:02:13;4.90;83.50
38684;DHT22;24910;53.248;-6.134;2024-01-15T10:04:46;4.90;83.50
38684;DHT22;24910;53.248;-6.134;2024-01-15T10:07:16;5.00;83.50
38684;DHT22;24910;53.248;-6.134;2024-01-15T10:09:47;5.10;83.50
38684;DHT22;24910;53.248;-6.134;2024-01-15T10:12:18;5.10;83.40
38684;DHT22;24910;53.248;-6.134;2024-01-15T10:14:47;5.10;83.30
38684;DHT22;24910;53.248;-6.134;2024-01-15T10:17:17;5.10;83.20
38684;DHT22;24910;53.248;-6.134;2024-01-15T10:19:46;5.10;83.30
38684;DHT22;24910;53.248;-6.134;2024-01-15T10:22:17;5.10;83.40
38684;DHT22;24910;53.248;-6.134;2024-01-15T10:24:47;5.10;83.40
38684;DHT22;24910;53.248;-6.134;2024-01-15T10:27:18;5.20;83.40
38684;DHT22;24910;53.248;-6.134;2024-01-15T10:29:47;5.20;83.40
38684;DHT22;24910;53.248;-6.134;2024-01-15T10:32:16;5.30;83.40
38684;DHT22;24910;53.248;-6.134;2024-01-15T10:34:45;5.30;83.40
38684;DHT22;24910;53.248;-6.134;2024-01-15T10:37:15;5.30;83.30
38684;DHT22;24910;53.248;-6.134;2024-01-15T10:39:46;5.40;83.40
38684;DHT22;24910;53.248;-6.134;2024-01-15T10:42:17;5.40;83.40
38684;DHT22;24910;53.248;-6.134;2024-01-15T10:44:46;5.50;83.40
38684;DHT22;24910;53.248;-6.134;2024-01-15T10:47:16;5.50;83.30
38684;DHT22;24910;53.248;-6.134;2024-01-15T10:49:46;5.60;83.30
38684;DHT22;24910;53.248;-6.134;2024-01-15T10:52:15;5.60;83.20
38684;DHT22;24910;53.248;-6.134;2024-01-15T10:54:45;5.60;83.20
38684;DHT22;24910;53.248;-6.134;2024-01-15T10:57:18;5.60;83.20
38684;DHT22;24910;53.248;-6.134;2024-01-15T10:59:47;5.60;83.30
38684;DHT22;24910;53.248;-6.134;2024-01-15T11:02:16;5.60;83.40
38684;DHT22;24910;53.248;-6.134;2024-01-15T11:04:46;5.60;83.40
38684;DHT22;24910;53.248;-6.134;2024-01-15T11:07:16;5.60;83.30
38684;DHT22;24910;53.248;-6.134;2024-01-15T11:09:46;5.60;83.30
38684;DHT22;24910;53.248;-6.134;2024-01-15T11:12:19;5.60;84.20
38684;DHT22;24910;53.248;-6.134;2024-01-15T11:14:49;5.50;83.40
38684;DHT22;24910;53.248;-6.134;2024-01-15T11:17:18;5.50;83.30
38684;DHT22;24910;53.248;-6.134;2024-01-15T11:19:48;5.60;83.30
38684;DHT22;24910;53.248;-6.134;2024-01-15T11:22:48;5.60;83.30
38684;DHT22;24910;53.248;-6.134;2024-01-15T11:25:18;5.50;83.30
38684;DHT22;24910;53.248;-6.134;2024-01-15T11:27:50;5.50;83.30
38684;DHT22;24910;53.248;-6.134;2024-01-15T11:30:25;5.40;83.30
38684;DHT22;24910;53.248;-6.134;2024-01-15T11:32:55;5.50;83.40
38684;DHT22;24910;53.248;-6.134;2024-01-15T11:35:47;5.50;83.40
38684;DHT22;24910;53.248;-6.134;2024-01-15T11:38:29;5.50;83.30
38684;DHT22;24910;53.248;-6.134;2024-01-15T11:40:59;5.50;83.30
38684;DHT22;24910;53.248;-6.134;2024-01-15T11:43:31;5.60;83.30
38684;DHT22;24910;53.248;-6.134;2024-01-15T11:46:02;5.60;83.20
38684;DHT22;24910;53.248;-6.134;2024-01-15T11:48:45;5.70;83.10
38684;DHT22;24910;53.248;-6.134;2024-01-15T11:51:17;5.70;83.10
38684;DHT22;24910;53.248;-6.134;2024-01-15T11:53:48;5.80;83.00
38684;DHT22;24910;53.248;-6.134;2024-01-15T11:56:22;5.80;82.90
38684;DHT22;24910;53.248;-6.134;2024-01-15T11:58:54;5.90;82.90
38684;DHT22;24910;53.248;-6.134;2024-01-15T12:01:23;5.90;83.00
38684;DHT22;24910;53.248;-6.134;2024-01-15T12:03:54;5.90;82.90
38684;DHT22;24910;53.248;-6.134;2024-01-15T12:06:26;6.00;83.00
38684;DHT22;24910;53.248;-6.134;2024-01-15T12:09:06;6.00;83.00
38684;DHT22;24910;53.248;-6.134;2024-01-15T12:11:36;6.00;83.00
38684;DHT22;24910;53.248;-6.134;2024-01-15T12:14:09;6.00;82.90
38684;DHT22;24910;53.248;-6.134;2024-01-15T12:16:38;6.00;82.90
38684;DHT22;24910;53.248;-6.134;2024-01-15T12:19:08;6.00;82.90
38684;DHT22;24910;53.248;-6.134;2024-01-15T12:21:39;6.10;82.90
38684;DHT22;24910;53.248;-6.134;2024-01-15T12:24:08;6.10;82.80
38684;DHT22;24910;53.248;-6.134;2024-01-15T12:26:37;6.10;82.70
38684;DHT22;24910;53.248;-6.134;2024-01-15T12:29:08;6.10;82.60
38684;DHT22;24910;53.248;-6.134;2024-01-15T12:31:37;6.20;83.60
38684;DHT22;24910;53.248;-6.134;2024-01-15T12:34:07;6.20;82.70
38684;DHT22;24910;53.248;-6.134;2024-01-15T12:36:36;6.20;82.70
38684;DHT22;24910;53.248;-6.134;2024-01-15T12:39:05;6.20;82.80
38684;DHT22;24910;53.248;-6.134;2024-01-15T12:41:36;6.30;82.70
38684;DHT22;24910;53.248;-6.134;2024-01-15T12:44:05;6.30;82.70
38684;DHT22;24910;53.248;-6.134;2024-01-15T12:46:36;6.30;82.60
38684;DHT22;24910;53.248;-6.134;2024-01-15T12:49:05;6.30;82.70
38684;DHT22;24910;53.248;-6.134;2024-01-15T12:51:36;6.30;82.70
38684;DHT22;24910;53.248;-6.134;2024-01-15T12:54:06;6.30;82.60
38684;DHT22;24910;53.248;-6.134;2024-01-15T12:56:35;6.30;82.50
38684;DHT22;24910;53.248;-6.134;2024-01-15T12:59:05;6.30;82.40
38684;DHT22;24910;53.248;-6.134;2024-01-15T13:01:35;6.30;82.50
38684;DHT22;24910;53.248;-6.134;2024-01-15T13:04:05;6.30;82.50
38684;DHT22;24910;53.248;-6.134;2024-01-15T13:06:37;6.30;82.60
38684;DHT22;24910;53.248;-6.134;2024-01-15T13:09:06;6.30;82.70
38684;DHT22;24910;53.248;-6.134;2024-01-15T13:11:38;6.20;82.70
38684;DHT22;24910;53.248;-6.134;2024-01-15T13:14:08;6.20;82.70
38684;DHT22;24910;53.248;-6.134;2024-01-15T13:16:39;6.20;82.80
38684;DHT22;24910;53.248;-6.134;2024-01-15T13:19:10;6.20;83.00
38684;DHT22;24910;53.248;-6.134;2024-01-15T13:21:41;6.20;82.90
38684;DHT22;24910;53.248;-6.134;2024-01-15T13:24:10;6.20;82.90
38684;DHT22;24910;53.248;-6.134;2024-01-15T13:26:40;6.20;82.90
38684;DHT22;24910;53.248;-6.134;2024-01-15T13:29:09;6.20;82.90
38684;DHT22;24910;53.248;-6.134;2024-01-15T13:31:40;6.20;82.90
38684;DHT22;24910;53.248;-6.134;2024-01-15T13:34:09;6.20;82.90
38684;DHT22;24910;53.248;-6.134;2024-01-15T13:36:39;6.20;82.90
38684;DHT22;24910;53.248;-6.134;2024-01-15T13:39:08;6.20;82.90
38684;DHT22;24910;53.248;-6.134;2024-01-15T13:41:38;6.10;82.90
38684;DHT22;24910;53.248;-6.134;2024-01-15T13:44:07;6.10;83.00
38684;DHT22;24910;53.248;-6.134;2024-01-15T13:46:39;6.10;83.00
38684;DHT22;24910;53.248;-6.134;2024-01-15T13:49:09;6.10;83.00
38684;DHT22;24910;53.248;-6.134;2024-01-15T13:51:39;6.10;82.90
38684;DHT22;24910;53.248;-6.134;2024-01-15T13:54:08;6.20;82.90
38684;DHT22;24910;53.248;-6.134;2024-01-15T13:56:37;6.20;82.90
38684;DHT22;24910;53.248;-6.134;2024-01-15T13:59:07;6.20;82.80
38684;DHT22;24910;53.248;-6.134;2024-01-15T14:01:36;6.20;82.80
38684;DHT22;24910;53.248;-6.134;2024-01-15T14:04:07;6.20;82.80
38684;DHT22;24910;53.248;-6.134;2024-01-15T14:06:36;6.20;82.80
38684;DHT22;24910;53.248;-6.134;2024-01-15T14:09:07;6.20;82.80
38684;DHT22;24910;53.248;-6.134;2024-01-15T14:11:37;6.20;82.70
38684;DHT22;24910;53.248;-6.134;2024-01-15T14:14:07;6.20;82.70
38684;DHT22;24910;53.248;-6.134;2024-01-15T14:16:37;6.20;82.70
38684;DHT22;24910;53.248;-6.134;2024-01-15T14:19:07;6.20;82.70
38684;DHT22;24910;53.248;-6.134;2024-01-15T14:21:38;6.20;82.70
38684;DHT22;24910;53.248;-6.134;2024-01-15T14:24:08;6.20;82.70
38684;DHT22;24910;53.248;-6.134;2024-01-15T14:26:37;6.20;82.70
38684;DHT22;24910;53.248;-6.134;2024-01-15T14:29:06;6.20;83.60
38684;DHT22;24910;53.248;-6.134;2024-01-15T14:31:35;6.20;82.70
38684;DHT22;24910;53.248;-6.134;2024-01-15T14:34:07;6.20;82.70
38684;DHT22;24910;53.248;-6.134;2024-01-15T14:36:37;6.10;82.80
38684;DHT22;24910;53.248;-6.134;2024-01-15T14:39:06;6.10;82.80
38684;DHT22;24910;53.248;-6.134;2024-01-15T14:41:36;6.10;82.80
38684;DHT22;24910;53.248;-6.134;2024-01-15T14:44:06;6.10;82.90
38684;DHT22;24910;53.248;-6.134;2024-01-15T14:46:35;6.10;82.90
38684;DHT22;24910;53.248;-6.134;2024-01-15T14:49:06;6.00;82.80
38684;DHT22;24910;53.248;-6.134;2024-01-15T14:51:35;6.00;82.80
38684;DHT22;24910;53.248;-6.134;2024-01-15T14:54:05;6.00;82.80
38684;DHT22;24910;53.248;-6.134;2024-01-15T14:56:34;6.00;82.80
38684;DHT22;24910;53.248;-6.134;2024-01-15T14:59:03;6.00;82.70
38684;DHT22;24910;53.248;-6.134;2024-01-15T15:01:33;6.00;82.70
38684;DHT22;24910;53.248;-6.134;2024-01-15T15:04:02;5.90;82.70
38684;DHT22;24910;53.248;-6.134;2024-01-15T15:06:33;5.90;82.80
38684;DHT22;24910;53.248;-6.134;2024-01-15T15:09:03;5.90;82.80
38684;DHT22;24910;53.248;-6.134;2024-01-15T15:11:37;5.90;82.80
38684;DHT22;24910;53.248;-6.134;2024-01-15T15:14:07;5.80;82.70
38684;DHT22;24910;53.248;-6.134;2024-01-15T15:16:36;5.80;82.60
38684;DHT22;24910;53.248;-6.134;2024-01-15T15:19:05;5.80;82.70
38684;DHT22;24910;53.248;-6.134;2024-01-15T15:21:36;5.80;82.70
38684;DHT22;24910;53.248;-6.134;2024-01-15T15:24:06;5.80;82.70
38684;DHT22;24910;53.248;-6.134;2024-01-15T15:26:35;5.80;82.70
38684;DHT22;24910;53.248;-6.134;2024-01-15T15:29:05;5.80;82.70
38684;DHT22;24910;53.248;-6.134;2024-01-15T15:31:35;5.70;82.70
38684;DHT22;24910;53.248;-6.134;2024-01-15T15:34:04;5.70;82.80
38684;DHT22;24910;53.248;-6.134;2024-01-15T15:36:34;5.70;82.80
38684;DHT22;24910;53.248;-6.134;2024-01-15T15:39:05;5.70;82.70
38684;DHT22;24910;53.248;-6.134;2024-01-15T15:41:34;5.70;82.70
38684;DHT22;24910;53.248;-6.134;2024-01-15T15:44:04;5.70;82.70
38684;DHT22;24910;53.248;-6.134;2024-01-15T15:46:33;5.70;82.80
38684;DHT22;24910;53.248;-6.134;2024-01-15T15:49:02;5.70;82.70